Time;durP1;ratioP1;P1;durP2;ratioP2;P2;SDS_P1;SDS_P2;PMS_P1;PMS_P2;Temp;Humidity;BMP_temperature;BMP_pressure;BME280_temperature;BME280_humidity;BME280_pressure;Samples;Min_cycle;Max_cycle;Signal;HPM_P1;HPM_P2
2022/11/09 00:02:40;;;;;;;202.38;44.42;;;;;;;2.35;86.51;100963.70;1662886;86;20196;-75
2022/11/09 00:05:46;;;;;;;309.45;44.80;;;;;;;2.33;85.92;100961.61;1667095;85;21204;-75
2022/11/09 00:08:52;;;;;;;350.18;47.38;;;;;;;2.59;85.36;100957.05;1668867;86;21720;-75
2022/11/09 00:12:03;;;;;;;323.57;48.35;;;;;;;2.58;85.38;100949.92;1688288;85;22101;-75
2022/11/09 00:15:08;;;;;;;252.30;46.15;;;;;;;2.59;85.22;100949.84;1670746;85;21178;-75
2022/11/09 00:18:13;;;;;;;410.85;46.68;;;;;;;2.61;85.14;100946.52;1688230;85;21202;-75
2022/11/09 00:21:30;;;;;;;305.83;56.30;;;;;;;2.73;85.26;100948.81;1688153;85;21190;-76
2022/11/09 00:24:35;;;;;;;226.30;44.15;;;;;;;2.55;85.95;100945.63;1688186;85;21190;-76
2022/11/09 00:27:42;;;;;;;324.23;47.05;;;;;;;2.82;85.78;100942.75;1688226;85;21127;-76
2022/11/09 00:30:49;;;;;;;228.12;36.65;;;;;;;2.63;85.48;100938.30;1688109;85;21174;-75
2022/11/09 00:33:56;;;;;;;255.55;50.85;;;;;;;2.63;86.43;100940.52;1687007;84;21186;-75
2022/11/09 00:37:04;;;;;;;363.00;46.67;;;;;;;2.63;85.46;100943.22;1688337;85;21158;-75
2022/11/09 00:40:10;;;;;;;198.60;38.33;;;;;;;2.31;86.10;100949.58;1688190;85;21193;-75
2022/11/09 00:43:15;;;;;;;294.93;43.08;;;;;;;2.29;87.10;100940.22;1688328;85;21150;-75
2022/11/09 00:46:21;;;;;;;336.05;45.85;;;;;;;2.28;87.02;100945.24;1688090;85;21180;-76
2022/11/09 00:49:28;;;;;;;306.50;48.95;;;;;;;2.22;87.55;100945.69;1686989;85;21194;-76
2022/11/09 00:52:34;;;;;;;493.63;54.33;;;;;;;2.21;88.26;100944.42;1688186;85;21150;-75
2022/11/09 00:55:40;;;;;;;427.85;49.03;;;;;;;2.51;87.26;100943.62;1688201;85;21150;-75
2022/11/09 00:58:45;;;;;;;463.87;47.43;;;;;;;2.52;86.93;100945.83;1688212;85;21154;-76
2022/11/09 01:01:52;;;;;;;327.27;41.10;;;;;;;2.28;87.81;100941.69;1688220;85;21222;-76
2022/11/09 01:04:58;;;;;;;358.50;41.98;;;;;;;2.45;87.69;100947.26;1685940;85;21158;-76
2022/11/09 01:08:05;;;;;;;309.37;47.17;;;;;;;2.52;87.51;100943.13;1688139;85;21791;-75
2022/11/09 01:11:15;;;;;;;169.57;39.27;;;;;;;2.47;87.54;100952.05;1688266;85;21170;-75
2022/11/09 01:14:21;;;;;;;363.15;53.20;;;;;;;2.43;87.60;100966.24;1688447;85;21146;-76
2022/11/09 01:17:26;;;;;;;83.20;32.73;;;;;;;2.39;88.22;100967.92;1688044;85;21205;-75
2022/11/09 01:20:32;;;;;;;215.82;47.08;;;;;;;2.39;88.55;100970.62;1688231;85;21185;-75
2022/11/09 01:23:38;;;;;;;320.00;45.73;;;;;;;2.56;88.15;100960.84;1688216;85;21194;-75
2022/11/09 01:26:44;;;;;;;274.77;51.65;;;;;;;2.58;87.60;100953.48;1688194;85;21701;-75
2022/11/09 01:29:50;;;;;;;263.37;44.50;;;;;;;2.50;87.47;100962.16;1688180;85;21138;-75
2022/11/09 01:32:55;;;;;;;312.72;42.50;;;;;;;2.41;88.17;100967.34;1688180;85;21178;-75
2022/11/09 01:36:03;;;;;;;254.45;41.75;;;;;;;2.45;88.19;100966.16;1688317;85;21149;-75
2022/11/09 01:39:09;;;;;;;176.75;40.45;;;;;;;2.53;87.94;100974.56;1654646;86;21185;-76
2022/11/09 01:42:15;;;;;;;217.85;41.63;;;;;;;2.53;87.87;100966.45;1677106;85;21221;-75
2022/11/09 01:45:35;;;;;;;122.58;33.67;;;;;;;2.61;87.68;100966.78;1677095;85;21153;-76
2022/11/09 01:48:48;;;;;;;234.95;50.15;;;;;;;2.62;87.48;100964.45;1677192;85;21148;-76
2022/11/09 01:52:05;;;;;;;251.27;41.40;;;;;;;2.55;87.39;100960.48;1677013;85;21755;-75
2022/11/09 01:55:15;;;;;;;361.75;44.38;;;;;;;2.69;87.02;100969.81;1677080;85;21172;-75
2022/11/09 01:58:24;;;;;;;62.20;29.55;;;;;;;2.53;86.93;100967.31;1676356;84;21168;-76
2022/11/09 02:01:29;;;;;;;;;;;;;;;2.56;87.23;100971.66;1675699;85;21203;-77
2022/11/09 02:04:41;;;;;;;225.40;40.63;;;;;;;2.60;86.69;100973.66;1645359;87;20191;-75
2022/11/09 02:07:49;;;;;;;187.40;40.50;;;;;;;2.52;87.00;100968.78;1641679;87;21184;-76
2022/11/09 02:11:18;;;;;;;153.57;35.33;;;;;;;2.72;86.73;100968.22;1674164;85;21183;-76
2022/11/09 02:14:23;;;;;;;173.32;39.80;;;;;;;2.64;86.48;100975.17;1696404;84;21163;-76
2022/11/09 02:17:30;;;;;;;314.12;44.90;;;;;;;2.54;86.46;100977.17;1703967;84;21802;-76
2022/11/09 02:20:36;;;;;;;329.05;41.83;;;;;;;2.24;87.39;100980.17;1704132;84;21291;-76
2022/11/09 02:23:41;;;;;;;272.45;44.00;;;;;;;2.09;88.36;100979.89;1704001;84;21243;-77
2022/11/09 02:26:59;;;;;;;136.77;34.63;;;;;;;2.30;87.91;100977.03;1704302;84;21211;-76
2022/11/09 02:30:05;;;;;;;115.15;35.50;;;;;;;2.46;87.57;100977.33;1672981;84;21199;-76
2022/11/09 02:33:10;;;;;;;242.22;38.00;;;;;;;2.44;87.10;100984.66;1646087;87;21829;-76
2022/11/09 02:36:16;;;;;;;202.55;40.58;;;;;;;2.42;87.48;100983.91;1675152;85;21223;-76
2022/11/09 02:39:27;;;;;;;319.27;40.58;;;;;;;2.47;87.09;100983.96;1675204;85;21219;-75
2022/11/09 02:42:33;;;;;;;135.00;34.08;;;;;;;2.60;86.11;100986.67;1675347;85;21171;-76
2022/11/09 02:45:39;;;;;;;266.63;42.13;;;;;;;2.50;86.70;100994.56;1675270;85;21172;-75
2022/11/09 02:48:44;;;;;;;285.85;40.17;;;;;;;2.64;86.58;100996.78;1675072;85;21192;-76
2022/11/09 02:51:49;;;;;;;353.65;51.28;;;;;;;2.44;87.26;100998.16;1675203;85;21757;-75
2022/11/09 02:54:56;;;;;;;199.02;41.25;;;;;;;2.68;87.25;100989.70;1675107;85;21248;-76
2022/11/09 02:58:02;;;;;;;102.17;36.25;;;;;;;2.68;86.44;100996.91;1675236;85;21176;-77
2022/11/09 03:01:08;;;;;;;98.47;33.92;;;;;;;2.76;86.17;100997.23;1675224;85;21715;-75
2022/11/09 03:04:14;;;;;;;193.50;42.25;;;;;;;2.47;87.17;100992.55;1675192;85;21160;-76
2022/11/09 03:07:18;;;;;;;232.20;41.40;;;;;;;2.63;86.89;100985.57;1673124;85;21225;-75
2022/11/09 03:10:24;;;;;;;235.20;38.55;;;;;;;2.56;87.11;100986.50;1666955;86;21233;-75
2022/11/09 03:13:29;;;;;;;226.65;40.52;;;;;;;2.48;86.80;100995.14;1667116;86;21320;-77
2022/11/09 03:16:34;;;;;;;242.37;42.20;;;;;;;2.55;87.20;100998.29;1666978;86;21186;-76
2022/11/09 03:19:41;;;;;;;224.37;45.33;;;;;;;2.60;87.80;100996.13;1666087;86;21827;-76
2022/11/09 03:22:48;;;;;;;95.17;33.90;;;;;;;2.65;87.46;100997.15;1665869;86;21225;-75
2022/11/09 03:25:56;;;;;;;232.60;38.92;;;;;;;2.78;87.33;101002.92;1666098;86;21213;-76
2022/11/09 03:29:03;;;;;;;168.93;43.20;;;;;;;2.85;87.10;100999.77;1666011;86;21226;-76
2022/11/09 03:32:08;;;;;;;206.15;39.48;;;;;;;2.73;87.21;101005.09;1665914;86;21853;-75
2022/11/09 03:35:16;;;;;;;220.57;36.90;;;;;;;2.84;87.44;100996.20;1664768;86;21225;-75
2022/11/09 03:38:16;;;;;;;228.25;47.38;;;;;;;3.12;86.33;100995.08;1666006;86;21283;-75
2022/11/09 03:41:23;;;;;;;103.15;34.05;;;;;;;2.89;86.52;101001.28;1665930;86;21324;-77
2022/11/09 03:44:28;;;;;;;117.95;35.33;;;;;;;3.09;86.44;100995.29;1665037;86;21788;-75
2022/11/09 03:47:35;;;;;;;165.77;35.35;;;;;;;2.75;87.53;100995.52;1665945;86;21261;-76
2022/11/09 03:50:41;;;;;;;134.25;29.63;;;;;;;2.63;87.78;100993.67;1666009;86;21221;-75
2022/11/09 03:53:47;;;;;;;272.65;38.45;;;;;;;2.62;87.81;101000.05;1664690;86;21253;-76
2022/11/09 03:56:53;;;;;;;61.18;30.17;;;;;;;2.72;87.67;100993.88;1664829;86;21748;-76
2022/11/09 03:59:59;;;;;;;112.30;29.07;;;;;;;2.65;87.58;101000.71;1664699;86;21265;-76
2022/11/09 04:03:06;;;;;;;201.35;31.90;;;;;;;2.69;87.56;101003.58;1665849;86;21273;-76
2022/11/09 04:06:12;;;;;;;161.37;37.03;;;;;;;2.94;86.49;101003.17;1665968;86;21226;-75
2022/11/09 04:09:18;;;;;;;145.65;32.93;;;;;;;2.94;85.63;100995.92;1653649;85;21246;-75
2022/11/09 04:12:24;;;;;;;72.00;26.80;;;;;;;2.75;85.95;100998.22;1645931;87;21333;-76
2022/11/09 04:15:30;;;;;;;215.20;35.60;;;;;;;2.60;86.82;101011.47;1644755;87;21225;-76
2022/11/09 04:18:37;;;;;;;125.40;33.45;;;;;;;2.70;86.64;101009.35;1645770;87;21824;-75
2022/11/09 04:21:43;;;;;;;180.57;33.53;;;;;;;2.55;87.03;101008.60;1645957;87;21218;-76
2022/11/09 04:24:49;;;;;;;160.25;35.60;;;;;;;2.61;86.93;101008.65;1644670;87;21257;-75
2022/11/09 04:27:56;;;;;;;242.30;39.30;;;;;;;2.57;87.34;101012.53;1645976;87;21561;-75
2022/11/09 04:31:04;;;;;;;226.77;35.17;;;;;;;2.67;87.25;101008.70;1645898;87;21278;-76
2022/11/09 04:34:09;;;;;;;265.82;35.13;;;;;;;2.73;87.12;101016.36;1628559;87;21230;-76
2022/11/09 04:37:16;;;;;;;128.97;29.95;;;;;;;2.58;87.46;101020.15;1646001;87;21274;-75
2022/11/09 04:40:23;;;;;;;149.45;37.98;;;;;;;2.64;87.84;101028.70;1644750;87;21222;-76
2022/11/09 04:43:28;;;;;;;150.18;36.42;;;;;;;2.65;87.83;101029.08;1644874;87;21267;-79
2022/11/09 04:46:35;;;;;;;192.72;36.38;;;;;;;2.60;87.84;101035.28;1646068;87;21761;-79
2022/11/09 04:49:41;;;;;;;76.67;31.90;;;;;;;2.57;88.03;101036.84;1645532;87;21254;-79
2022/11/09 04:52:46;;;;;;;69.60;34.90;;;;;;;2.64;88.42;101042.20;1646034;87;21226;-79
2022/11/09 04:55:53;;;;;;;63.75;33.78;;;;;;;2.49;89.21;101041.91;1644856;87;22531;-79
2022/11/09 04:59:00;;;;;;;59.35;32.70;;;;;;;2.51;89.35;101050.78;1645914;87;21782;-79
2022/11/09 05:02:06;;;;;;;55.15;31.42;;;;;;;2.59;89.79;101052.47;1646016;87;21801;-79
2022/11/09 05:05:14;;;;;;;54.05;28.42;;;;;;;2.50;89.77;101055.81;1646485;86;21251;-78
2022/11/09 05:08:19;;;;;;;48.42;27.90;;;;;;;2.47;89.88;101054.66;1642859;87;21291;-79
2022/11/09 05:11:26;;;;;;;59.55;31.93;;;;;;;2.78;89.26;101052.05;1626734;88;21320;-77
2022/11/09 05:14:33;;;;;;;53.83;30.45;;;;;;;2.87;88.65;101061.31;1628318;88;21264;-77
2022/11/09 05:17:38;;;;;;;52.65;30.12;;;;;;;3.01;87.64;101067.48;1628809;88;21812;-77
2022/11/09 05:20:45;;;;;;;59.77;32.63;;;;;;;3.05;87.41;101060.00;1610813;89;21262;-76
2022/11/09 05:24:01;;;;;;;57.13;33.13;;;;;;;3.00;86.87;101067.09;1611379;89;21271;-76
2022/11/09 05:27:07;;;;;;;50.92;29.63;;;;;;;3.13;86.70;101075.69;1611431;89;21228;-76
2022/11/09 05:30:14;;;;;;;53.60;32.28;;;;;;;3.27;86.51;101075.55;1611676;89;21346;-77
2022/11/09 05:33:19;;;;;;;54.70;33.50;;;;;;;3.35;85.96;101074.52;1616805;86;22320;-78
2022/11/09 05:36:25;;;;;;;53.48;30.30;;;;;;;3.23;85.81;101072.69;1670482;86;21786;-79
2022/11/09 05:39:31;;;;;;;46.18;28.80;;;;;;;3.44;85.38;101080.61;1670393;86;21784;-76
2022/11/09 05:42:36;;;;;;;40.25;24.92;;;;;;;3.66;84.60;101076.31;1670306;86;21196;-76
2022/11/09 05:45:36;;;;;;;53.05;31.50;;;;;;;3.45;85.62;101076.92;1670398;86;21172;-77
2022/11/09 05:48:29;;;;;;;44.05;28.20;;;;;;;3.68;84.34;101079.79;1684563;85;22673;-76
2022/11/09 05:51:36;;;;;;;46.88;28.27;;;;;;;3.62;84.31;101082.92;1684542;85;21701;-76
2022/11/09 05:54:41;;;;;;;42.43;25.75;;;;;;;3.59;84.41;101084.03;1685554;85;21199;-76
2022/11/09 05:57:46;;;;;;;44.30;29.00;;;;;;;3.87;84.29;101090.11;1685633;85;21150;-77
2022/11/09 06:00:52;;;;;;;48.45;30.35;;;;;;;3.83;84.53;101093.03;1685804;85;21190;-77
2022/11/09 06:03:58;;;;;;;38.45;26.45;;;;;;;3.60;85.55;101092.52;1685807;85;21159;-76
2022/11/09 06:07:04;;;;;;;45.25;30.88;;;;;;;3.64;86.41;101096.73;1705888;83;21213;-76
2022/11/09 06:10:10;;;;;;;43.08;26.70;;;;;;;3.49;87.06;101105.97;1685746;85;22047;-76
2022/11/09 06:13:15;;;;;;;41.92;28.83;;;;;;;3.60;86.93;101115.52;1674804;85;21736;-76
2022/11/09 06:16:22;;;;;;;40.95;28.02;;;;;;;3.61;87.07;101109.61;1675163;85;21261;-76
2022/11/09 06:19:27;;;;;;;38.83;24.60;;;;;;;3.73;87.07;101116.35;1681588;84;21205;-79
2022/11/09 06:22:35;;;;;;;35.33;24.72;;;;;;;3.67;87.40;101116.81;1675075;84;21777;-77
2022/11/09 06:25:41;;;;;;;38.85;25.95;;;;;;;3.84;86.99;101118.25;1670393;84;21258;-79
2022/11/09 06:28:47;;;;;;;33.40;22.45;;;;;;;4.10;85.92;101120.39;1681474;84;21234;-79
2022/11/09 06:31:53;;;;;;;40.30;25.72;;;;;;;3.83;86.44;101118.75;1692928;84;21783;-78
2022/11/09 06:34:59;;;;;;;36.38;24.85;;;;;;;4.33;84.94;101114.10;1668978;84;21250;-78
2022/11/09 06:38:06;;;;;;;40.80;24.67;;;;;;;4.11;84.92;101116.70;1672140;84;21260;-77
2022/11/09 06:41:11;;;;;;;34.30;24.60;;;;;;;4.09;84.97;101118.64;1650074;84;28032;-78
2022/11/09 06:44:17;;;;;;;36.42;24.32;;;;;;;4.05;85.55;101117.16;1649782;85;21220;-77
2022/11/09 06:47:23;;;;;;;34.45;21.55;;;;;;;4.15;85.72;101120.91;1635640;85;21552;-77
2022/11/09 06:50:23;;;;;;;38.53;25.23;;;;;;;4.31;85.34;101124.17;1649428;86;21187;-78
2022/11/09 06:53:30;;;;;;;33.60;23.60;;;;;;;4.26;85.38;101124.16;1651025;85;21235;-77
2022/11/09 06:56:37;;;;;;;31.05;21.70;;;;;;;4.32;84.99;101120.97;1649331;85;22260;-77
2022/11/09 06:59:42;;;;;;;39.67;26.05;;;;;;;4.25;84.73;101124.64;1646936;85;21239;-76
2022/11/09 07:02:49;;;;;;;46.42;24.98;;;;;;;4.27;84.66;101124.02;1644046;86;21177;-77
2022/11/09 07:05:57;;;;;;;34.65;21.37;;;;;;;4.42;84.00;101121.13;1657121;86;22304;-77
2022/11/09 07:09:04;;;;;;;39.30;25.97;;;;;;;4.50;84.09;101116.86;1673674;85;21235;-76
2022/11/09 07:12:12;;;;;;;33.60;22.77;;;;;;;4.51;83.67;101121.29;1665859;85;21300;-78
2022/11/09 07:15:20;;;;;;;39.40;25.75;;;;;;;4.52;83.68;101118.12;1623559;86;21241;-77
2022/11/09 07:18:28;;;;;;;36.70;25.10;;;;;;;4.53;83.21;101117.12;1624556;86;21252;-78
2022/11/09 07:21:35;;;;;;;37.10;23.50;;;;;;;4.53;83.26;101115.77;1624926;86;21269;-77
2022/11/09 07:24:42;;;;;;;36.28;23.92;;;;;;;4.48;83.61;101121.55;1625749;87;21327;-77
2022/11/09 07:27:49;;;;;;;35.08;22.93;;;;;;;4.38;84.30;101120.52;1620498;86;21269;-79
2022/11/09 07:30:54;;;;;;;32.13;23.05;;;;;;;4.43;84.32;101118.33;1626417;87;21265;-77
2022/11/09 07:34:03;;;;;;;33.48;23.52;;;;;;;4.61;84.00;101116.02;1628945;88;21876;-77
2022/11/09 07:37:09;;;;;;;30.37;21.40;;;;;;;4.73;83.74;101113.73;1630975;88;21265;-77
2022/11/09 07:40:16;;;;;;;31.62;22.27;;;;;;;4.82;83.25;101118.44;1604508;88;26051;-77
2022/11/09 07:43:22;;;;;;;34.83;21.93;;;;;;;4.87;82.75;101113.52;1625767;87;21232;-77
2022/11/09 07:46:28;;;;;;;34.30;21.87;;;;;;;4.72;82.99;101114.72;1616458;87;21241;-76
2022/11/09 07:49:34;;;;;;;30.43;19.98;;;;;;;4.76;82.91;101114.00;1626891;86;21212;-76
2022/11/09 07:52:40;;;;;;;29.75;20.40;;;;;;;4.82;82.17;101120.28;1617792;86;21206;-76
2022/11/09 07:56:32;;;;;;;35.95;23.12;;;;;;;4.96;81.57;101117.36;1628281;86;21205;-78
2022/11/09 07:59:37;;;;;;;33.18;21.62;;;;;;;4.82;82.24;101125.21;1627077;86;21225;-77
2022/11/09 08:02:46;;;;;;;35.33;22.30;;;;;;;4.76;82.90;101133.83;1633635;86;21482;-76
2022/11/09 08:05:54;;;;;;;33.38;20.32;;;;;;;4.64;83.70;101128.48;1627695;86;21346;-79
2022/11/09 08:09:01;;;;;;;31.37;22.62;;;;;;;4.58;83.97;101128.47;1621288;86;21277;-78
2022/11/09 08:12:07;;;;;;;31.48;21.17;;;;;;;4.54;84.04;101135.11;1623707;88;21256;-79
2022/11/09 08:15:14;;;;;;;36.48;21.27;;;;;;;4.63;84.32;101137.61;1630445;86;21799;-79
2022/11/09 08:18:24;;;;;;;27.13;18.02;;;;;;;4.77;84.02;101138.27;1616341;87;21311;-79
2022/11/09 08:21:29;;;;;;;35.13;18.75;;;;;;;5.03;83.36;101142.13;1639937;86;21799;-79
2022/11/09 08:24:37;;;;;;;31.57;21.05;;;;;;;5.04;82.68;101140.67;1641880;86;21868;-77
2022/11/09 08:27:43;;;;;;;28.90;20.45;;;;;;;4.96;82.37;101149.03;1633336;86;21667;-77
2022/11/09 08:30:51;;;;;;;25.57;19.02;;;;;;;5.10;82.20;101145.61;1642618;86;21233;-77
2022/11/09 08:33:59;;;;;;;32.50;21.90;;;;;;;5.26;81.69;101149.31;1640691;86;21338;-77
2022/11/09 08:37:06;;;;;;;25.60;19.52;;;;;;;5.23;81.72;101148.22;1644886;86;21269;-76
2022/11/09 08:40:13;;;;;;;28.87;20.90;;;;;;;5.16;81.80;101146.11;1640140;86;21258;-77
2022/11/09 08:43:19;;;;;;;33.45;21.57;;;;;;;5.01;82.03;101153.60;1642077;86;21246;-77
2022/11/09 08:46:25;;;;;;;29.30;21.17;;;;;;;5.28;81.91;101151.93;1645108;86;21223;-78
2022/11/09 08:49:33;;;;;;;30.02;20.72;;;;;;;5.44;81.36;101150.20;1643821;86;21284;-76
2022/11/09 08:52:40;;;;;;;33.50;22.65;;;;;;;5.47;81.51;101148.61;1623534;86;21775;-77
2022/11/09 08:55:46;;;;;;;32.55;22.85;;;;;;;5.37;81.41;101145.77;1650126;86;21577;-78
2022/11/09 08:58:50;;;;;;;28.98;20.85;;;;;;;5.43;81.43;101137.63;1640839;86;21272;-77
2022/11/09 09:01:56;;;;;;;34.23;23.55;;;;;;;5.61;81.14;101137.50;1648150;86;21184;-78
2022/11/09 09:05:01;;;;;;;28.95;21.45;;;;;;;5.67;80.77;101138.36;1636718;86;21247;-76
2022/11/09 09:08:10;;;;;;;34.45;23.98;;;;;;;5.84;80.08;101146.00;1642078;86;21233;-77
2022/11/09 09:11:16;;;;;;;36.20;23.35;;;;;;;6.03;79.72;101147.23;1647496;86;21262;-77
2022/11/09 09:14:22;;;;;;;44.05;26.65;;;;;;;5.85;80.29;101139.57;1645979;86;21331;-77
2022/11/09 09:17:29;;;;;;;34.45;25.25;;;;;;;5.96;80.15;101147.36;1629441;86;21363;-78
2022/11/09 09:20:34;;;;;;;43.23;29.07;;;;;;;6.01;79.84;101147.84;1616236;86;21201;-78
2022/11/09 09:23:41;;;;;;;42.17;27.40;;;;;;;6.19;79.53;101146.31;1625875;86;21819;-78
2022/11/09 09:26:48;;;;;;;41.75;29.10;;;;;;;6.37;78.78;101147.50;1618363;86;21305;-76
2022/11/09 09:29:54;;;;;;;39.90;28.32;;;;;;;6.44;77.76;101138.32;1618308;87;21286;-77
2022/11/09 09:33:06;;;;;;;41.13;27.35;;;;;;;6.52;77.17;101143.12;1623152;87;21268;-76
2022/11/09 09:36:13;;;;;;;29.32;19.35;;;;;;;6.59;76.68;101141.63;1623185;87;22311;-76
2022/11/09 09:39:19;;;;;;;40.40;27.00;;;;;;;6.80;75.54;101146.56;1618933;87;21225;-78
2022/11/09 09:42:37;;;;;;;37.08;25.60;;;;;;;6.78;75.31;101151.29;1638569;85;24422;-78
2022/11/09 09:45:43;;;;;;;41.15;25.70;;;;;;;6.90;74.90;101144.77;1684806;83;21212;-78
2022/11/09 09:48:55;;;;;;;33.70;24.10;;;;;;;6.76;75.55;101146.45;1684009;83;21460;-78
2022/11/09 09:52:14;;;;;;;39.50;26.85;;;;;;;6.60;76.29;101148.28;1682534;84;21178;-78
2022/11/09 09:55:34;;;;;;;44.93;27.70;;;;;;;6.79;75.62;101147.56;1689196;83;21338;-79
2022/11/09 09:58:41;;;;;;;41.70;27.27;;;;;;;6.87;74.95;101138.77;1689662;83;21329;-79
2022/11/09 10:01:49;;;;;;;39.75;26.15;;;;;;;6.93;74.39;101127.84;1689832;83;21188;-78
2022/11/09 10:04:55;;;;;;;38.58;24.98;;;;;;;6.97;74.05;101127.45;1689746;83;21204;-78
2022/11/09 10:08:19;;;;;;;34.45;23.20;;;;;;;6.96;74.11;101126.20;1692484;83;21169;-78
2022/11/09 10:12:09;;;;;;;37.17;25.17;;;;;;;7.09;73.24;101125.00;1697489;83;21189;-78
2022/11/09 10:15:45;;;;;;;34.98;22.20;;;;;;;6.91;72.92;101123.88;1680742;83;21215;-78
2022/11/09 10:19:27;;;;;;;31.48;20.57;;;;;;;6.81;72.74;101127.89;1687005;83;21782;-78
2022/11/09 10:22:44;;;;;;;40.12;24.02;;;;;;;6.84;72.40;101128.14;1685851;83;21263;-79
2022/11/09 10:25:52;;;;;;;36.65;24.32;;;;;;;6.51;73.11;101138.69;1697364;83;21163;-78
2022/11/09 10:29:01;;;;;;;36.83;23.80;;;;;;;6.72;72.92;101136.84;1697954;83;21299;-77
2022/11/09 10:31:59;;;;;;;32.33;22.35;;;;;;;6.75;72.92;101132.50;1698035;83;21849;-78
2022/11/09 10:35:15;;;;;;;36.83;24.63;;;;;;;6.95;72.78;101136.72;1704659;83;21239;-78
2022/11/09 10:38:28;;;;;;;32.70;21.85;;;;;;;7.01;72.41;101128.02;1694691;83;21227;-78
2022/11/09 10:41:51;;;;;;;27.10;19.48;;;;;;;7.13;72.08;101125.60;1701734;83;21253;-78
2022/11/09 10:45:38;;;;;;;36.28;25.02;;;;;;;7.18;71.46;101123.33;1699846;83;21306;-79
2022/11/09 10:49:03;;;;;;;33.50;24.65;;;;;;;7.21;71.82;101116.77;1695598;83;21331;-79
2022/11/09 10:52:40;;;;;;;39.05;24.57;;;;;;;7.27;72.19;101117.59;1701172;83;21190;-78
2022/11/09 10:56:22;;;;;;;35.65;26.30;;;;;;;7.32;71.96;101115.31;1701159;83;21805;-78
2022/11/09 10:59:57;;;;;;;31.00;22.15;;;;;;;7.32;72.12;101121.62;1694983;83;21248;-78
2022/11/09 11:03:24;;;;;;;35.35;20.75;;;;;;;7.57;71.30;101112.63;1698970;83;21212;-79
2022/11/09 11:06:48;;;;;;;32.55;23.40;;;;;;;7.52;70.92;101112.17;1691687;83;21240;-76
2022/11/09 11:10:27;;;;;;;34.45;21.60;;;;;;;7.62;70.41;101112.59;1694383;83;21242;-77
2022/11/09 11:13:53;;;;;;;33.25;23.27;;;;;;;7.54;70.25;101112.92;1693275;83;22588;-78
2022/11/09 11:17:34;;;;;;;35.45;24.27;;;;;;;7.39;70.93;101111.93;1698476;83;21870;-77
2022/11/09 11:21:20;;;;;;;38.05;24.37;;;;;;;7.54;70.13;101108.84;1702707;83;21681;-76
2022/11/09 11:24:43;;;;;;;38.23;24.72;;;;;;;7.64;69.62;101109.22;1681648;83;21278;-77
2022/11/09 11:28:04;;;;;;;34.98;24.67;;;;;;;7.51;69.58;101117.27;1702295;83;22258;-78
2022/11/09 11:31:19;;;;;;;38.92;24.10;;;;;;;7.65;69.33;101117.75;1704497;83;21327;-77
2022/11/09 11:34:35;;;;;;;39.65;25.88;;;;;;;7.62;69.59;101111.23;1702188;83;22645;-77
2022/11/09 11:38:35;;;;;;;33.30;25.25;;;;;;;7.60;69.73;101114.58;1707892;83;21299;-77
2022/11/09 11:42:08;;;;;;;36.45;25.70;;;;;;;7.64;69.46;101109.73;1700731;83;21222;-76
2022/11/09 11:45:51;;;;;;;38.92;25.08;;;;;;;7.61;69.47;101105.41;1697055;83;21283;-77
2022/11/09 11:49:39;;;;;;;29.95;22.50;;;;;;;7.67;69.46;101106.23;1690712;83;21255;-77
2022/11/09 11:53:17;;;;;;;34.83;22.10;;;;;;;7.65;69.31;101109.58;1696500;83;21223;-78
2022/11/09 11:56:56;;;;;;;38.13;24.05;;;;;;;7.71;68.94;101103.22;1698909;83;21235;-77
2022/11/09 12:00:21;;;;;;;42.13;27.00;;;;;;;7.55;69.89;101110.05;1693477;83;21274;-76
2022/11/09 12:03:58;;;;;;;30.60;21.25;;;;;;;7.65;69.92;101102.77;1708036;83;21788;-76
2022/11/09 12:07:46;;;;;;;34.00;23.45;;;;;;;7.74;70.07;101105.67;1688982;83;21165;-77
2022/11/09 12:11:22;;;;;;;35.33;23.12;;;;;;;7.99;69.28;101111.96;1709953;83;21187;-77
2022/11/09 12:14:57;;;;;;;22.62;17.15;;;;;;;7.59;69.83;101107.42;1691121;83;21659;-77
2022/11/09 12:18:38;;;;;;;35.35;23.52;;;;;;;7.63;69.63;101102.56;1679142;83;21218;-78
2022/11/09 12:22:18;;;;;;;33.33;22.07;;;;;;;7.68;69.61;101105.73;1667499;84;21513;-78
2022/11/09 12:25:50;;;;;;;31.85;22.65;;;;;;;7.71;69.70;101105.94;1681112;84;21614;-77
2022/11/09 12:29:30;;;;;;;39.80;25.17;;;;;;;7.52;70.09;101106.73;1674457;84;21236;-76
2022/11/09 12:33:03;;;;;;;32.65;22.30;;;;;;;7.56;69.61;101109.05;1672788;84;21577;-76
2022/11/09 12:36:39;;;;;;;30.92;23.38;;;;;;;7.61;69.79;101109.99;1672653;85;21248;-77
2022/11/09 12:40:05;;;;;;;34.83;24.10;;;;;;;7.52;69.89;101118.98;1671470;84;21246;-79
2022/11/09 12:43:41;;;;;;;34.30;23.05;;;;;;;7.40;70.51;101117.73;1684271;84;21271;-79
2022/11/09 12:47:04;;;;;;;29.48;21.55;;;;;;;7.37;71.12;101119.34;1651112;84;21612;-77
2022/11/09 12:50:28;;;;;;;27.60;20.77;;;;;;;7.19;71.73;101104.64;1673535;84;21223;-78
2022/11/09 12:53:51;;;;;;;33.92;22.40;;;;;;;7.05;72.32;101109.94;1683978;84;21176;-77
2022/11/09 12:57:23;;;;;;;36.00;22.67;;;;;;;7.16;72.35;101105.80;1699003;84;21786;-76
2022/11/09 13:00:51;;;;;;;25.00;19.48;;;;;;;7.29;71.99;101104.22;1685078;84;21807;-76
2022/11/09 13:04:07;;;;;;;25.70;19.98;;;;;;;7.23;72.35;101106.10;1693489;84;21199;-77
2022/11/09 13:07:24;;;;;;;24.82;20.02;;;;;;;7.22;72.35;101112.55;1679131;84;21213;-78
2022/11/09 13:10:48;;;;;;;27.60;20.80;;;;;;;7.37;71.88;101104.88;1686369;84;21192;-78
2022/11/09 13:14:35;;;;;;;27.77;20.82;;;;;;;7.47;71.26;101107.64;1695283;84;22476;-77
2022/11/09 13:18:08;;;;;;;28.45;21.33;;;;;;;7.57;71.23;101104.45;1673683;84;21219;-78
2022/11/09 13:21:35;;;;;;;35.05;20.75;;;;;;;7.36;71.76;101105.39;1676202;83;21191;-77
2022/11/09 13:24:59;;;;;;;23.35;18.92;;;;;;;7.38;71.90;101114.77;1654787;85;21596;-78
2022/11/09 13:28:11;;;;;;;31.55;22.98;;;;;;;7.41;72.00;101115.36;1603760;88;21280;-78
2022/11/09 13:32:20;;;;;;;49.95;35.75;;;;;;;7.39;72.13;101121.45;1632157;86;21200;-77
2022/11/09 13:35:55;;;;;;;42.43;29.80;;;;;;;7.27;72.71;101115.72;1632552;86;21236;-77
2022/11/09 13:39:38;;;;;;;41.05;28.00;;;;;;;7.23;73.05;101104.74;1646050;86;22816;-77
2022/11/09 13:43:18;;;;;;;33.83;25.23;;;;;;;7.14;72.81;101111.85;1644057;86;21636;-78
2022/11/09 13:46:45;;;;;;;35.73;27.02;;;;;;;7.02;73.23;101109.36;1650131;86;21228;-78
2022/11/09 13:50:08;;;;;;;36.65;22.93;;;;;;;7.21;72.67;101108.11;1668325;86;21275;-77
2022/11/09 13:54:10;;;;;;;32.95;24.10;;;;;;;7.12;72.96;101119.30;1643570;86;21231;-77
2022/11/09 13:57:32;;;;;;;37.30;24.30;;;;;;;7.03;73.20;101115.16;1654378;86;21232;-78
2022/11/09 14:00:56;;;;;;;39.13;22.93;;;;;;;7.06;73.14;101115.77;1639033;86;21236;-77
2022/11/09 14:04:44;;;;;;;33.15;21.85;;;;;;;7.06;73.18;101113.55;1632530;86;21519;-77
2022/11/09 14:08:06;;;;;;;36.68;23.05;;;;;;;7.16;73.02;101111.73;1641921;86;21208;-77
2022/11/09 14:11:56;;;;;;;42.90;26.87;;;;;;;7.10;73.03;101110.89;1625944;86;21215;-77
2022/11/09 14:15:51;;;;;;;29.57;20.82;;;;;;;7.01;73.39;101115.31;1628599;88;21662;-76
2022/11/09 14:19:19;;;;;;;33.90;22.27;;;;;;;6.93;73.80;101108.80;1629371;87;21244;-78
2022/11/09 14:22:43;;;;;;;31.87;22.32;;;;;;;6.93;73.72;101113.74;1629913;88;21265;-77
2022/11/09 14:26:15;;;;;;;33.92;24.70;;;;;;;6.85;73.90;101121.20;1652994;86;21203;-78
2022/11/09 14:29:35;;;;;;;42.55;23.30;;;;;;;7.06;73.63;101116.27;1652747;86;21214;-77
2022/11/09 14:33:00;;;;;;;35.08;24.77;;;;;;;7.10;73.49;101122.63;1653409;86;21302;-77
2022/11/09 14:36:24;;;;;;;39.03;24.82;;;;;;;7.06;73.60;101123.92;1649866;86;21204;-77
2022/11/09 14:39:48;;;;;;;36.30;25.48;;;;;;;6.98;73.93;101122.36;1641080;87;21287;-78
2022/11/09 14:43:36;;;;;;;32.95;23.57;;;;;;;6.95;74.07;101129.92;1640655;87;21262;-77
2022/11/09 14:47:03;;;;;;;36.50;22.52;;;;;;;6.35;76.06;101133.66;1641456;87;21231;-76
2022/11/09 14:50:32;;;;;;;37.60;27.65;;;;;;;6.36;76.33;101139.48;1641147;87;21207;-77